createdAt,value
2022-08-05T00:00:18.925Z,18.37
2022-08-05T00:03:06.464Z,18.36
2022-08-05T00:06:04.540Z,18.33
2022-08-05T00:08:34.712Z,18.30
2022-08-05T00:11:20.598Z,18.27
2022-08-05T00:13:55.318Z,18.24
2022-08-05T00:16:36.314Z,18.20
2022-08-05T00:19:11.113Z,18.15
2022-08-05T00:21:38.865Z,18.10
2022-08-05T00:24:11.363Z,18.04
2022-08-05T00:26:51.699Z,18.02
2022-08-05T00:29:25.456Z,17.99
2022-08-05T00:32:12.155Z,17.94
2022-08-05T00:35:05.595Z,17.91
2022-08-05T00:37:35.647Z,17.87
2022-08-05T00:40:27.018Z,17.83
2022-08-05T00:42:59.846Z,17.81
2022-08-05T00:45:39.441Z,17.81
2022-08-05T00:48:17.512Z,17.80
2022-08-05T00:50:48.157Z,17.80
2022-08-05T00:54:00.224Z,17.78
2022-08-05T00:56:08.206Z,17.75
2022-08-05T00:58:36.831Z,17.74
2022-08-05T01:01:08.764Z,17.71
2022-08-05T01:03:38.457Z,17.69
2022-08-05T01:06:06.663Z,17.66
2022-08-05T01:08:44.462Z,17.62
2022-08-05T01:11:21.873Z,17.61
2022-08-05T01:14:08.820Z,17.64
2022-08-05T01:16:54.652Z,17.66
2022-08-05T01:19:30.177Z,17.68
2022-08-05T01:22:46.985Z,17.71
2022-08-05T01:25:40.057Z,17.72
2022-08-05T01:28:32.343Z,17.73
2022-08-05T01:31:06.690Z,17.74
2022-08-05T01:33:42.449Z,17.73
2022-08-05T01:36:20.943Z,17.72
2022-08-05T01:38:50.001Z,17.72
2022-08-05T01:41:25.723Z,17.72
2022-08-05T01:43:54.765Z,17.73
2022-08-05T01:46:42.352Z,17.72
2022-08-05T01:49:23.971Z,17.70
2022-08-05T01:51:58.398Z,17.68
2022-08-05T01:54:45.784Z,17.69
2022-08-05T01:58:11.542Z,17.68
2022-08-05T02:00:11.673Z,17.67
2022-08-05T02:02:53.677Z,17.67
2022-08-05T02:05:28.579Z,17.62
2022-08-05T02:08:01.066Z,17.55
2022-08-05T02:10:36.771Z,17.50
2022-08-05T02:13:48.637Z,17.45
2022-08-05T02:16:29.192Z,17.37
2022-08-05T02:19:10.215Z,17.32
2022-08-05T02:21:46.887Z,17.30
2022-08-05T02:24:23.137Z,17.28
2022-08-05T02:26:56.598Z,17.27
2022-08-05T02:29:58.741Z,17.27
2022-08-05T02:32:19.867Z,17.25
2022-08-05T02:34:55.002Z,17.18
2022-08-05T02:37:24.042Z,17.10
2022-08-05T02:39:53.948Z,17.03
2022-08-05T02:42:27.608Z,16.96
2022-08-05T02:45:00.274Z,16.92
2022-08-05T02:47:58.581Z,16.91
2022-08-05T02:50:22.162Z,16.89
2022-08-05T02:52:51.883Z,16.87
2022-08-05T02:55:52.200Z,16.83
2022-08-05T02:58:19.985Z,16.78
2022-08-05T03:00:48.814Z,16.74
2022-08-05T03:03:23.388Z,16.70
2022-08-05T03:06:57.015Z,16.68
2022-08-05T03:08:43.008Z,16.67
2022-08-05T03:11:57.334Z,16.69
2022-08-05T03:14:09.500Z,16.71
2022-08-05T03:16:42.066Z,16.71
2022-08-05T03:19:17.425Z,16.70
2022-08-05T03:21:57.214Z,16.68
2022-08-05T03:24:30.442Z,16.67
2022-08-05T03:27:00.259Z,16.66
2022-08-05T03:29:45.166Z,16.64
2022-08-05T03:32:16.969Z,16.62
2022-08-05T03:34:51.220Z,16.60
2022-08-05T03:37:23.750Z,16.60
2022-08-05T03:39:58.568Z,16.62
2022-08-05T03:42:29.194Z,16.62
2022-08-05T03:45:01.728Z,16.58
2022-08-05T03:47:47.911Z,16.53
2022-08-05T03:50:17.345Z,16.50
2022-08-05T03:55:00.536Z,16.49
2022-08-05T03:56:12.094Z,16.50
2022-08-05T03:58:48.738Z,16.52
2022-08-05T04:01:21.232Z,16.52
2022-08-05T04:04:09.523Z,16.53
2022-08-05T04:06:38.493Z,16.55
2022-08-05T04:09:20.384Z,16.57
2022-08-05T04:11:56.723Z,16.59
2022-08-05T04:14:30.008Z,16.61
2022-08-05T04:17:00.270Z,16.64
2022-08-05T04:19:29.336Z,16.69
2022-08-05T04:22:08.964Z,16.73
2022-08-05T04:24:43.893Z,16.77
2022-08-05T04:27:13.637Z,16.82
2022-08-05T04:29:42.238Z,16.88
2022-08-05T04:32:10.415Z,16.91
2022-08-05T04:34:42.902Z,16.95
2022-08-05T04:37:11.369Z,17.00
2022-08-05T04:39:40.529Z,17.03
2022-08-05T04:42:09.106Z,17.07
2022-08-05T04:44:37.044Z,17.11
2022-08-05T04:47:09.099Z,17.16
2022-08-05T04:50:02.769Z,17.20
2022-08-05T04:52:28.570Z,17.25
2022-08-05T04:54:57.478Z,17.29
2022-08-05T04:57:29.244Z,17.33
2022-08-05T04:59:58.337Z,17.39
2022-08-05T05:02:36.914Z,17.44
2022-08-05T05:05:16.518Z,17.50
2022-08-05T05:07:56.643Z,17.56
2022-08-05T05:10:33.214Z,17.63
2022-08-05T05:13:03.937Z,17.69
2022-08-05T05:15:56.141Z,17.74
2022-08-05T05:18:28.501Z,17.81
2022-08-05T05:21:03.206Z,17.87
2022-08-05T05:23:39.537Z,17.94
2022-08-05T05:26:19.761Z,18.01
2022-08-05T05:28:57.051Z,18.08
2022-08-05T05:31:25.159Z,18.16
2022-08-05T05:34:01.846Z,18.23
2022-08-05T05:36:32.010Z,18.31
2022-08-05T05:39:00.114Z,18.41
2022-08-05T05:41:40.327Z,18.50
2022-08-05T05:44:35.729Z,18.60
2022-08-05T05:46:58.067Z,18.69
2022-08-05T05:49:26.442Z,18.78
2022-08-05T05:51:54.977Z,18.85
2022-08-05T05:54:22.881Z,18.94
2022-08-05T05:57:13.497Z,19.03
2022-08-05T05:59:41.622Z,19.11
2022-08-05T06:02:11.067Z,19.19
2022-08-05T06:04:38.885Z,19.27
2022-08-05T06:07:06.698Z,19.35
2022-08-05T06:09:51.373Z,19.44
2022-08-05T06:12:22.181Z,19.54
2022-08-05T06:14:54.919Z,19.67
2022-08-05T06:17:30.859Z,19.79
2022-08-05T06:19:59.924Z,19.93
2022-08-05T06:22:33.736Z,20.07
2022-08-05T06:25:24.379Z,20.21
2022-08-05T06:28:11.225Z,20.40
2022-08-05T06:30:39.783Z,20.61
2022-08-05T06:33:09.992Z,20.76
2022-08-05T06:36:06.954Z,20.89
2022-08-05T06:38:35.867Z,21.03
2022-08-05T06:41:07.790Z,21.17
2022-08-05T06:43:58.189Z,21.32
2022-08-05T06:46:30.382Z,21.44
2022-08-05T06:49:01.132Z,21.55
2022-08-05T06:51:31.091Z,21.70
2022-08-05T06:54:01.717Z,21.88
2022-08-05T06:56:33.325Z,22.07
2022-08-05T06:59:09.662Z,22.23
2022-08-05T07:01:40.550Z,22.38
2022-08-05T07:04:09.587Z,22.51
2022-08-05T07:06:37.815Z,22.63
2022-08-05T07:09:05.620Z,22.76
2022-08-05T07:11:36.840Z,22.92
2022-08-05T07:14:29.538Z,23.69
2022-08-05T07:18:00.541Z,25.99
2022-08-05T07:22:42.190Z,30.59
2022-08-05T07:25:22.546Z,32.20
2022-08-05T07:28:05.991Z,33.60
2022-08-05T07:30:39.159Z,34.39
2022-08-05T07:33:15.760Z,35.06
2022-08-05T07:36:02.940Z,35.78
2022-08-05T07:38:43.422Z,36.38
2022-08-05T07:42:09.232Z,36.94
2022-08-05T07:44:14.435Z,37.93
2022-08-05T07:46:49.727Z,38.58
2022-08-05T07:49:19.646Z,38.88
2022-08-05T07:51:54.415Z,39.04
2022-08-05T07:54:31.373Z,39.83
2022-08-05T07:57:18.067Z,40.33
2022-08-05T07:59:51.142Z,40.67
2022-08-05T08:02:26.660Z,40.90
2022-08-05T08:04:59.156Z,40.92
2022-08-05T08:07:28.492Z,41.50
2022-08-05T08:09:56.996Z,42.56
2022-08-05T08:12:35.158Z,43.62
2022-08-05T08:15:15.132Z,44.01
2022-08-05T08:17:50.543Z,44.19
2022-08-05T08:20:45.256Z,44.95
2022-08-05T08:24:02.972Z,45.57
2022-08-05T08:26:02.655Z,45.85
2022-08-05T08:28:36.630Z,46.49
2022-08-05T08:31:14.611Z,47.31
2022-08-05T08:33:46.916Z,47.54
2022-08-05T08:36:38.428Z,47.08
2022-08-05T08:39:15.696Z,47.65
2022-08-05T08:41:51.857Z,48.53
2022-08-05T08:45:20.787Z,48.62
2022-08-05T08:48:07.010Z,47.85
2022-08-05T08:50:32.750Z,47.57
2022-08-05T08:53:08.149Z,47.57
2022-08-05T08:56:03.421Z,47.90
2022-08-05T08:58:43.347Z,47.80
2022-08-05T09:01:17.988Z,47.75
2022-08-05T09:03:57.255Z,47.63
2022-08-05T09:06:29.806Z,46.86
2022-08-05T09:09:00.690Z,46.87
2022-08-05T09:11:52.572Z,47.53
2022-08-05T09:14:58.425Z,48.20
2022-08-05T09:17:41.056Z,47.77
2022-08-05T09:20:05.083Z,46.47
2022-08-05T09:23:09.287Z,45.68
2022-08-05T09:26:02.229Z,44.93
2022-08-05T09:28:31.906Z,44.96
2022-08-05T09:31:22.731Z,44.95
2022-08-05T09:34:05.618Z,44.88
2022-08-05T09:36:54.821Z,45.15
2022-08-05T09:39:41.298Z,45.27
2022-08-05T09:42:24.177Z,45.06
2022-08-05T09:45:17.642Z,45.00
2022-08-05T09:47:55.290Z,45.07
2022-08-05T09:50:38.890Z,44.76
2022-08-05T09:53:22.682Z,44.72
2022-08-05T09:56:04.662Z,44.45
2022-08-05T09:58:33.100Z,44.64
2022-08-05T10:01:14.724Z,44.26
2022-08-05T10:04:03.555Z,42.86
2022-08-05T10:06:32.943Z,41.42
2022-08-05T10:09:28.414Z,40.20
2022-08-05T10:12:18.704Z,39.25
2022-08-05T10:15:34.323Z,38.25
2022-08-05T10:18:08.766Z,37.46
2022-08-05T10:20:47.601Z,37.10
2022-08-05T10:23:55.303Z,36.68
2022-08-05T10:26:17.789Z,36.11
2022-08-05T10:28:46.797Z,35.59
2022-08-05T10:32:53.217Z,35.17
2022-08-05T10:34:08.154Z,34.92
2022-08-05T10:36:38.159Z,34.84
2022-08-05T10:39:24.175Z,34.79
2022-08-05T10:42:03.201Z,34.73
2022-08-05T10:44:32.852Z,34.55
2022-08-05T10:47:26.699Z,34.36
2022-08-05T10:50:20.803Z,34.10
2022-08-05T10:53:01.211Z,33.79
2022-08-05T10:55:38.535Z,33.60
2022-08-05T10:58:20.643Z,33.53
2022-08-05T11:00:55.284Z,33.50
2022-08-05T11:03:31.006Z,33.47
2022-08-05T11:06:08.629Z,33.47
2022-08-05T11:09:31.896Z,33.50
2022-08-05T11:12:42.430Z,33.40
2022-08-05T11:15:20.302Z,33.20
2022-08-05T11:18:00.117Z,33.06
2022-08-05T11:20:44.134Z,32.95
2022-08-05T11:23:33.745Z,32.85
2022-08-05T11:26:32.586Z,32.79
2022-08-05T11:29:11.532Z,32.77
2022-08-05T11:31:58.907Z,32.79
2022-08-05T11:34:38.053Z,32.82
2022-08-05T11:38:26.574Z,32.87
2022-08-05T11:40:00.464Z,32.84
2022-08-05T11:42:37.640Z,32.74
2022-08-05T11:45:23.327Z,32.59
2022-08-05T11:47:57.697Z,32.44
2022-08-05T11:50:27.512Z,32.35
2022-08-05T11:52:57.969Z,32.36
2022-08-05T11:55:32.360Z,32.41
2022-08-05T11:58:08.121Z,32.51
2022-08-05T12:00:41.537Z,32.57
2022-08-05T12:03:28.764Z,32.53
2022-08-05T12:06:02.637Z,32.54
2022-08-05T12:08:31.625Z,32.64
2022-08-05T12:11:06.266Z,32.71
2022-08-05T12:13:49.605Z,32.73
2022-08-05T12:16:19.543Z,32.79
2022-08-05T12:18:49.399Z,32.87
2022-08-05T12:21:24.658Z,32.95
2022-08-05T12:23:57.459Z,33.01
2022-08-05T12:26:43.984Z,33.09
2022-08-05T12:29:22.960Z,33.14
2022-08-05T12:32:02.103Z,33.18
2022-08-05T12:34:33.694Z,33.24
2022-08-05T12:37:16.998Z,33.32
2022-08-05T12:40:03.144Z,33.38
2022-08-05T12:42:39.834Z,33.37
2022-08-05T12:45:09.749Z,33.41
2022-08-05T12:47:38.539Z,33.44
2022-08-05T12:50:16.391Z,33.41
2022-08-05T12:52:55.736Z,33.40
2022-08-05T12:55:28.222Z,33.42
2022-08-05T12:58:50.396Z,33.40
2022-08-05T13:02:05.100Z,33.26
2022-08-05T13:03:41.693Z,33.16
2022-08-05T13:06:16.178Z,33.14
2022-08-05T13:08:51.987Z,33.12
2022-08-05T13:12:01.895Z,33.08
2022-08-05T13:14:24.843Z,32.98
2022-08-05T13:17:10.370Z,32.94
2022-08-05T13:19:51.900Z,32.93
2022-08-05T13:22:28.522Z,32.93
2022-08-05T13:25:05.182Z,32.90
2022-08-05T13:27:39.739Z,32.89
2022-08-05T13:30:35.105Z,32.87
2022-08-05T13:33:02.078Z,32.87
2022-08-05T13:35:42.917Z,32.88
2022-08-05T13:38:28.416Z,32.94
2022-08-05T13:41:00.070Z,32.97
2022-08-05T13:43:43.300Z,32.99
2022-08-05T13:46:12.136Z,33.00
2022-08-05T13:48:57.114Z,33.01
2022-08-05T13:51:29.740Z,32.98
2022-08-05T13:54:12.042Z,32.96
2022-08-05T13:56:45.476Z,32.94
2022-08-05T13:59:24.441Z,32.90
2022-08-05T14:01:57.673Z,32.82
2022-08-05T14:04:51.594Z,32.72
2022-08-05T14:07:25.801Z,32.69
2022-08-05T14:10:18.988Z,32.69
2022-08-05T14:12:56.969Z,32.69
2022-08-05T14:16:07.798Z,32.66
2022-08-05T14:18:18.273Z,32.63
2022-08-05T14:20:54.325Z,32.59
2022-08-05T14:23:25.707Z,32.57
2022-08-05T14:25:59.059Z,32.57
2022-08-05T14:28:29.327Z,32.60
2022-08-05T14:30:59.174Z,32.60
2022-08-05T14:33:26.969Z,32.58
2022-08-05T14:35:54.981Z,32.56
2022-08-05T14:38:32.015Z,32.51
2022-08-05T14:41:03.611Z,32.44
2022-08-05T14:44:02.436Z,32.38
2022-08-05T14:46:28.913Z,32.36
2022-08-05T14:49:06.419Z,32.35
2022-08-05T14:51:37.522Z,32.35
2022-08-05T14:54:27.079Z,32.36
2022-08-05T14:56:55.717Z,32.37
2022-08-05T14:59:23.815Z,32.37
2022-08-05T15:01:53.840Z,32.36
2022-08-05T15:04:22.354Z,32.36
2022-08-05T15:06:51.640Z,32.35
2022-08-05T15:09:51.942Z,32.36
2022-08-05T15:12:16.489Z,32.37
2022-08-05T15:14:49.869Z,32.39
2022-08-05T15:17:46.815Z,32.39
2022-08-05T15:20:18.335Z,32.39
2022-08-05T15:22:52.382Z,32.39
2022-08-05T15:25:52.906Z,32.39
2022-08-05T15:28:15.913Z,32.39
2022-08-05T15:30:46.219Z,32.38
2022-08-05T15:33:56.666Z,32.35
2022-08-05T15:36:06.167Z,32.31
2022-08-05T15:38:44.891Z,32.28
2022-08-05T15:41:22.917Z,32.29
2022-08-05T15:43:54.619Z,32.30
2022-08-05T15:46:24.111Z,32.32
2022-08-05T15:48:58.916Z,32.35
2022-08-05T15:52:13.000Z,32.39
2022-08-05T15:54:35.017Z,32.41
2022-08-05T15:57:07.726Z,32.39
2022-08-05T15:59:36.436Z,32.36
2022-08-05T16:02:27.622Z,32.34
2022-08-05T16:04:56.528Z,32.33
2022-08-05T16:07:24.526Z,32.29
2022-08-05T16:09:57.374Z,32.27
2022-08-05T16:12:25.390Z,32.26
2022-08-05T16:14:53.371Z,32.24
2022-08-05T16:17:21.290Z,32.20
2022-08-05T16:20:11.012Z,32.15
2022-08-05T16:22:36.928Z,32.09
2022-08-05T16:25:09.794Z,32.03
2022-08-05T16:28:00.512Z,31.97
2022-08-05T16:30:29.063Z,31.91
2022-08-05T16:33:01.020Z,31.89
2022-08-05T16:35:32.152Z,31.88
2022-08-05T16:38:18.543Z,31.88
2022-08-05T16:40:55.226Z,31.87
2022-08-05T16:43:25.139Z,31.87
2022-08-05T16:46:06.138Z,31.86
2022-08-05T16:48:38.655Z,31.86
2022-08-05T16:51:10.087Z,31.85
2022-08-05T16:54:05.243Z,31.84
2022-08-05T16:56:30.549Z,31.80
2022-08-05T16:58:58.865Z,31.74
2022-08-05T17:01:53.217Z,31.65
2022-08-05T17:04:16.737Z,31.59
2022-08-05T17:06:53.473Z,31.55
2022-08-05T17:09:21.685Z,31.52
2022-08-05T17:11:55.942Z,31.47
2022-08-05T17:14:37.632Z,31.43
2022-08-05T17:17:14.582Z,31.37
2022-08-05T17:19:45.306Z,31.31
2022-08-05T17:22:25.125Z,31.26
2022-08-05T17:24:58.271Z,31.19
2022-08-05T17:27:33.492Z,31.13
2022-08-05T17:30:07.104Z,31.07
2022-08-05T17:32:42.067Z,31.01
2022-08-05T17:35:12.252Z,30.95
2022-08-05T17:37:45.663Z,30.87
2022-08-05T17:40:18.237Z,30.79
2022-08-05T17:42:52.827Z,30.72
2022-08-05T17:45:25.046Z,30.64
2022-08-05T17:47:57.750Z,30.57
2022-08-05T17:50:28.091Z,30.51
2022-08-05T17:53:02.964Z,30.43
2022-08-05T17:55:38.426Z,30.34
2022-08-05T17:58:11.035Z,30.26
2022-08-05T18:00:45.315Z,30.19
2022-08-05T18:03:56.476Z,30.11
2022-08-05T18:06:12.225Z,30.02
2022-08-05T18:08:46.120Z,29.94
2022-08-05T18:11:24.473Z,29.86
2022-08-05T18:14:03.712Z,29.78
2022-08-05T18:16:33.352Z,29.70
2022-08-05T18:19:01.192Z,29.63
2022-08-05T18:22:08.227Z,29.56
2022-08-05T18:24:16.814Z,29.47
2022-08-05T18:26:44.682Z,29.36
2022-08-05T18:29:16.729Z,29.28
2022-08-05T18:31:44.884Z,29.20
2022-08-05T18:34:12.991Z,29.11
2022-08-05T18:36:43.654Z,28.98
2022-08-05T18:39:42.205Z,28.84
2022-08-05T18:42:06.185Z,28.67
2022-08-05T18:44:49.434Z,28.53
2022-08-05T18:47:26.659Z,28.43
2022-08-05T18:50:21.705Z,28.35
2022-08-05T18:53:16.787Z,28.25
2022-08-05T18:55:48.719Z,28.18
2022-08-05T18:58:24.344Z,28.12
2022-08-05T19:00:59.815Z,28.05
2022-08-05T19:03:53.013Z,27.98
2022-08-05T19:06:22.144Z,27.93
2022-08-05T19:09:02.121Z,27.87
2022-08-05T19:11:59.419Z,27.81
2022-08-05T19:14:44.622Z,27.77
2022-08-05T19:17:09.055Z,27.70
2022-08-05T19:19:46.981Z,27.64
2022-08-05T19:22:17.183Z,27.57
2022-08-05T19:24:56.127Z,27.50
2022-08-05T19:27:30.179Z,27.44
2022-08-05T19:29:58.865Z,27.37
2022-08-05T19:32:27.855Z,27.30
2022-08-05T19:34:56.887Z,27.22
2022-08-05T19:37:34.847Z,27.14
2022-08-05T19:40:17.434Z,27.09
2022-08-05T19:43:00.902Z,27.05
2022-08-05T19:45:36.542Z,27.02
2022-08-05T19:48:05.888Z,26.99
2022-08-05T19:50:35.121Z,26.97
2022-08-05T19:53:09.289Z,26.93
2022-08-05T19:56:12.572Z,26.88
2022-08-05T19:58:29.585Z,26.80
2022-08-05T20:00:58.801Z,26.75
2022-08-05T20:03:27.405Z,26.70
2022-08-05T20:06:15.761Z,26.65
2022-08-05T20:08:55.265Z,26.58
2022-08-05T20:11:24.660Z,26.52
2022-08-05T20:13:58.761Z,26.47
2022-08-05T20:16:40.630Z,26.43
2022-08-05T20:19:08.381Z,26.38
2022-08-05T20:21:38.336Z,26.32
2022-08-05T20:24:06.898Z,26.26
2022-08-05T20:26:36.014Z,26.20
2022-08-05T20:29:03.725Z,26.14
2022-08-05T20:31:43.258Z,26.08
2022-08-05T20:34:21.617Z,26.01
2022-08-05T20:36:51.014Z,25.93
2022-08-05T20:39:19.292Z,25.86
2022-08-05T20:41:47.942Z,25.80
2022-08-05T20:44:30.316Z,25.74
2022-08-05T20:47:04.973Z,25.68
2022-08-05T20:49:39.396Z,25.62
2022-08-05T20:52:09.000Z,25.56
2022-08-05T20:54:43.413Z,25.50
2022-08-05T20:57:43.409Z,25.42
2022-08-05T21:00:40.619Z,25.35
2022-08-05T21:03:07.064Z,25.30
2022-08-05T21:05:53.319Z,25.24
2022-08-05T21:08:35.857Z,25.18
2022-08-05T21:11:12.393Z,25.13
2022-08-05T21:13:48.131Z,25.09
2022-08-05T21:16:29.391Z,25.04
2022-08-05T21:19:00.876Z,24.99
2022-08-05T21:21:39.606Z,24.96
2022-08-05T21:24:15.459Z,24.93
2022-08-05T21:26:47.393Z,24.91
2022-08-05T21:29:23.410Z,24.89
2022-08-05T21:31:55.077Z,24.86
2022-08-05T21:34:23.630Z,24.83
2022-08-05T21:36:52.252Z,24.81
2022-08-05T21:39:26.841Z,24.78
2022-08-05T21:42:02.029Z,24.72
2022-08-05T21:44:31.788Z,24.68
2022-08-05T21:47:00.250Z,24.63
2022-08-05T21:49:58.604Z,24.58
2022-08-05T21:52:27.865Z,24.52
2022-08-05T21:55:06.201Z,24.47
2022-08-05T21:57:42.743Z,24.42
2022-08-05T22:00:12.896Z,24.36
2022-08-05T22:02:41.670Z,24.30
2022-08-05T22:05:12.039Z,24.25
2022-08-05T22:07:59.104Z,24.19
2022-08-05T22:10:31.045Z,24.14
2022-08-05T22:13:09.182Z,24.07
2022-08-05T22:16:00.956Z,23.97
2022-08-05T22:18:32.622Z,23.91
2022-08-05T22:21:00.466Z,23.84
2022-08-05T22:24:02.625Z,23.78
2022-08-05T22:26:54.950Z,23.70
2022-08-05T22:29:26.125Z,23.63
2022-08-05T22:31:55.341Z,23.53
2022-08-05T22:34:28.695Z,23.46
2022-08-05T22:36:58.252Z,23.41
2022-08-05T22:39:33.739Z,23.35
2022-08-05T22:42:12.316Z,23.30
2022-08-05T22:44:48.594Z,23.25
2022-08-05T22:47:29.097Z,23.19
2022-08-05T22:50:20.195Z,23.14
2022-08-05T22:52:52.602Z,23.07
2022-08-05T22:55:22.091Z,23.02
2022-08-05T22:57:51.346Z,22.96
2022-08-05T23:00:22.098Z,22.90
2022-08-05T23:02:52.123Z,22.84
2022-08-05T23:05:22.377Z,22.78
2022-08-05T23:07:51.582Z,22.73
2022-08-05T23:10:23.935Z,22.66
2022-08-05T23:12:54.678Z,22.58
2022-08-05T23:15:27.183Z,22.53
2022-08-05T23:18:00.944Z,22.46
2022-08-05T23:20:32.724Z,22.40
2022-08-05T23:23:05.754Z,22.34
2022-08-05T23:25:52.052Z,22.27
2022-08-05T23:28:28.796Z,22.20
2022-08-05T23:31:06.980Z,22.14
2022-08-05T23:34:05.140Z,22.07
2022-08-05T23:36:40.312Z,22.03
2022-08-05T23:39:16.571Z,21.97
2022-08-05T23:41:54.015Z,21.93
2022-08-05T23:44:25.159Z,21.87
2022-08-05T23:46:55.990Z,21.84
2022-08-05T23:49:35.678Z,21.80
2022-08-05T23:52:25.411Z,21.77
2022-08-05T23:54:55.578Z,21.71
2022-08-05T23:57:28.278Z,21.64
